createdAt,value
2023-03-02T00:01:51.177Z,99.90
2023-03-02T00:04:22.113Z,99.90
2023-03-02T00:06:52.816Z,99.90
2023-03-02T00:09:21.318Z,99.90
2023-03-02T00:11:49.723Z,99.90
2023-03-02T00:14:18.050Z,99.90
2023-03-02T00:16:47.694Z,99.90
2023-03-02T00:19:15.971Z,99.90
2023-03-02T00:21:44.381Z,99.90
2023-03-02T00:24:14.776Z,99.90
2023-03-02T00:26:43.446Z,99.90
2023-03-02T00:29:11.704Z,99.90
2023-03-02T00:31:40.205Z,99.90
2023-03-02T00:34:09.907Z,99.90
2023-03-02T00:36:38.301Z,99.90
2023-03-02T00:39:06.636Z,99.90
2023-03-02T00:41:34.951Z,99.90
2023-03-02T00:44:03.406Z,99.90
2023-03-02T00:46:32.095Z,99.90
2023-03-02T00:49:00.781Z,99.90
2023-03-02T00:51:30.647Z,99.90
2023-03-02T00:54:02.758Z,99.90
2023-03-02T00:56:31.778Z,99.90
2023-03-02T00:59:06.192Z,99.90
2023-03-02T01:01:35.256Z,99.90
2023-03-02T01:04:03.734Z,99.90
2023-03-02T01:06:33.703Z,99.90
2023-03-02T01:09:02.306Z,99.90
2023-03-02T01:11:30.713Z,99.90
2023-03-02T01:13:59.018Z,99.90
2023-03-02T01:16:27.391Z,99.90
2023-03-02T01:18:55.702Z,99.90
2023-03-02T01:21:24.039Z,99.90
2023-03-02T01:23:53.730Z,99.90
2023-03-02T01:26:22.048Z,99.90
2023-03-02T01:28:55.305Z,99.90
2023-03-02T01:31:23.981Z,99.90
2023-03-02T01:33:53.026Z,99.90
2023-03-02T01:36:21.819Z,99.90
2023-03-02T01:38:50.142Z,99.90
2023-03-02T01:41:20.263Z,99.90
2023-03-02T01:43:48.647Z,99.90
2023-03-02T01:46:18.881Z,99.90
2023-03-02T01:48:55.352Z,99.90
2023-03-02T01:51:47.991Z,99.90
2023-03-02T01:54:22.876Z,99.90
2023-03-02T01:57:00.579Z,99.90
2023-03-02T01:59:31.786Z,99.90
2023-03-02T02:02:04.426Z,99.90
2023-03-02T02:04:35.602Z,99.90
2023-03-02T02:07:06.145Z,99.90
2023-03-02T02:09:38.366Z,99.90
2023-03-02T02:12:12.811Z,99.90
2023-03-02T02:14:41.531Z,99.90
2023-03-02T02:17:10.341Z,99.90
2023-03-02T02:19:50.477Z,99.90
2023-03-02T02:22:29.703Z,99.90
2023-03-02T02:25:02.774Z,99.90
2023-03-02T02:27:33.712Z,99.90
2023-03-02T02:30:06.217Z,99.90
2023-03-02T02:32:38.842Z,99.90
2023-03-02T02:35:14.289Z,99.90
2023-03-02T02:37:46.312Z,99.90
2023-03-02T02:40:22.391Z,99.90
2023-03-02T02:42:54.404Z,99.90
2023-03-02T02:45:25.204Z,99.90
2023-03-02T02:47:55.126Z,99.90
2023-03-02T02:50:27.174Z,99.90
2023-03-02T02:52:59.767Z,99.90
2023-03-02T02:55:28.562Z,99.90
2023-03-02T02:58:01.466Z,99.90
2023-03-02T03:00:30.501Z,99.90
2023-03-02T03:03:02.941Z,99.90
2023-03-02T03:05:31.459Z,99.90
2023-03-02T03:08:09.422Z,99.90
2023-03-02T03:10:42.042Z,99.90
2023-03-02T03:13:13.427Z,99.90
2023-03-02T03:15:42.347Z,99.90
2023-03-02T03:18:10.611Z,99.90
2023-03-02T03:20:41.156Z,99.90
2023-03-02T03:23:09.627Z,99.90
2023-03-02T03:25:37.926Z,99.90
2023-03-02T03:28:06.617Z,99.90
2023-03-02T03:30:36.991Z,99.90
2023-03-02T03:33:05.576Z,99.90
2023-03-02T03:35:33.899Z,99.90
2023-03-02T03:38:02.275Z,99.90
2023-03-02T03:40:34.187Z,99.90
2023-03-02T03:43:04.206Z,99.90
2023-03-02T03:45:33.429Z,99.90
2023-03-02T03:48:03.273Z,99.90
2023-03-02T03:50:31.657Z,99.90
2023-03-02T03:53:01.360Z,99.90
2023-03-02T03:55:31.399Z,99.90
2023-03-02T03:57:59.833Z,99.90
2023-03-02T04:00:28.358Z,99.90
2023-03-02T04:03:05.251Z,99.90
2023-03-02T04:05:34.695Z,99.90
2023-03-02T04:08:04.286Z,99.90
2023-03-02T04:10:33.532Z,99.90
2023-03-02T04:13:03.261Z,99.90
2023-03-02T04:15:32.210Z,99.90
2023-03-02T04:18:01.919Z,99.90
2023-03-02T04:20:32.573Z,99.90
2023-03-02T04:23:00.924Z,99.90
2023-03-02T04:25:31.166Z,99.90
2023-03-02T04:28:05.075Z,99.90
2023-03-02T04:30:37.705Z,99.90
2023-03-02T04:33:06.409Z,99.90
2023-03-02T04:35:37.575Z,99.90
2023-03-02T04:38:06.170Z,99.90
2023-03-02T04:40:34.744Z,99.90
2023-03-02T04:43:03.115Z,99.90
2023-03-02T04:45:31.431Z,99.90
2023-03-02T04:47:59.713Z,99.90
2023-03-02T04:50:28.263Z,99.90
2023-03-02T04:52:57.953Z,99.90
2023-03-02T04:55:28.228Z,99.90
2023-03-02T04:57:56.559Z,99.90
2023-03-02T05:00:25.260Z,99.90
2023-03-02T05:02:53.600Z,99.90
2023-03-02T05:05:24.841Z,99.90
2023-03-02T05:07:53.582Z,99.90
2023-03-02T05:10:23.869Z,99.90
2023-03-02T05:13:05.040Z,99.90
2023-03-02T05:15:37.069Z,99.90
2023-03-02T05:18:07.972Z,99.90
2023-03-02T05:20:36.826Z,99.90
2023-03-02T05:23:08.299Z,99.90
2023-03-02T05:25:39.640Z,99.90
2023-03-02T05:28:08.038Z,99.90
2023-03-02T05:30:37.775Z,99.90
2023-03-02T05:33:06.477Z,99.90
2023-03-02T05:35:34.919Z,99.90
2023-03-02T05:38:03.283Z,99.90
2023-03-02T05:40:31.655Z,99.90
2023-03-02T05:43:01.412Z,99.90
2023-03-02T05:45:32.746Z,99.90
2023-03-02T05:48:01.058Z,99.90
2023-03-02T05:50:29.391Z,99.90
2023-03-02T05:52:58.276Z,99.90
2023-03-02T05:55:27.011Z,99.90
2023-03-02T05:57:55.411Z,99.90
2023-03-02T06:00:25.633Z,99.90
2023-03-02T06:02:53.977Z,99.90
2023-03-02T06:05:22.766Z,99.90
2023-03-02T06:07:51.132Z,99.90
2023-03-02T06:10:19.459Z,99.90
2023-03-02T06:12:47.758Z,99.90
2023-03-02T06:15:16.226Z,99.90
2023-03-02T06:17:45.991Z,99.90
2023-03-02T06:20:15.492Z,99.90
2023-03-02T06:22:46.080Z,99.90
2023-03-02T06:25:16.261Z,99.90
2023-03-02T06:27:44.955Z,99.90
2023-03-02T06:30:16.722Z,99.90
2023-03-02T06:32:46.756Z,99.90
2023-03-02T06:35:15.898Z,99.90
2023-03-02T06:37:44.608Z,99.90
2023-03-02T06:40:14.369Z,99.90
2023-03-02T06:42:43.622Z,99.90
2023-03-02T06:45:12.985Z,99.90
2023-03-02T06:47:41.701Z,99.90
2023-03-02T06:50:12.929Z,99.90
2023-03-02T06:52:41.269Z,99.90
2023-03-02T06:55:10.246Z,99.90
2023-03-02T06:57:38.699Z,99.90
2023-03-02T07:00:10.256Z,99.90
2023-03-02T07:02:39.067Z,99.90
2023-03-02T07:05:08.517Z,99.90
2023-03-02T07:07:38.388Z,99.90
2023-03-02T07:10:08.048Z,99.90
2023-03-02T07:12:36.334Z,99.90
2023-03-02T07:15:05.488Z,99.90
2023-03-02T07:17:35.380Z,99.90
2023-03-02T07:20:05.013Z,99.90
2023-03-02T07:22:33.669Z,99.90
2023-03-02T07:25:03.447Z,99.90
2023-03-02T07:27:31.858Z,99.90
2023-03-02T07:30:00.283Z,99.90
2023-03-02T07:32:29.001Z,99.90
2023-03-02T07:34:57.342Z,99.90
2023-03-02T07:37:25.703Z,99.90
2023-03-02T07:39:54.069Z,99.90
2023-03-02T07:42:23.867Z,99.90
2023-03-02T07:44:57.089Z,99.90
2023-03-02T07:47:25.449Z,99.90
2023-03-02T07:49:53.724Z,99.90
2023-03-02T07:52:22.097Z,99.90
2023-03-02T07:54:50.635Z,99.90
2023-03-02T07:57:18.956Z,99.90
2023-03-02T07:59:48.668Z,99.90
2023-03-02T08:02:20.268Z,99.90
2023-03-02T08:04:49.077Z,99.90
2023-03-02T08:07:17.817Z,99.90
2023-03-02T08:09:46.171Z,99.90
2023-03-02T08:12:14.624Z,99.90
2023-03-02T08:14:43.567Z,99.90
2023-03-02T08:17:13.203Z,99.90
2023-03-02T08:19:41.570Z,99.90
2023-03-02T08:22:09.985Z,99.90
2023-03-02T08:24:40.333Z,99.90
2023-03-02T08:27:09.124Z,99.90
2023-03-02T08:29:37.652Z,99.90
2023-03-02T08:32:06.931Z,99.90
2023-03-02T08:34:37.047Z,99.90
2023-03-02T08:37:05.343Z,99.90
2023-03-02T08:39:34.173Z,99.90
2023-03-02T08:42:02.543Z,99.90
2023-03-02T08:44:30.886Z,99.90
2023-03-02T08:46:59.198Z,99.90
2023-03-02T08:49:27.919Z,99.90
2023-03-02T08:51:59.420Z,99.90
2023-03-02T08:54:28.183Z,99.90
2023-03-02T08:56:56.621Z,99.90
2023-03-02T08:59:25.272Z,99.90
2023-03-02T09:01:53.606Z,99.90
2023-03-02T09:04:21.969Z,99.90
2023-03-02T09:06:50.271Z,99.90
2023-03-02T09:09:19.967Z,99.90
2023-03-02T09:11:48.312Z,99.90
2023-03-02T09:14:16.671Z,99.90
2023-03-02T09:16:45.409Z,99.90
2023-03-02T09:19:14.421Z,99.90
2023-03-02T09:21:42.749Z,99.90
2023-03-02T09:24:11.210Z,99.90
2023-03-02T09:26:40.872Z,99.90
2023-03-02T09:29:09.227Z,99.90
2023-03-02T09:31:38.910Z,99.90
2023-03-02T09:34:07.670Z,99.90
2023-03-02T09:36:36.555Z,99.90
2023-03-02T09:39:09.332Z,99.90
2023-03-02T09:42:07.276Z,99.90
2023-03-02T09:45:11.188Z,99.90
2023-03-02T09:47:48.062Z,99.90
2023-03-02T09:50:28.823Z,99.90
2023-03-02T09:53:25.748Z,99.90
2023-03-02T09:55:59.173Z,99.90
2023-03-02T09:58:35.305Z,99.90
2023-03-02T10:01:10.357Z,99.90
2023-03-02T10:03:46.337Z,99.90
2023-03-02T10:06:15.066Z,99.90
2023-03-02T10:08:43.426Z,99.90
2023-03-02T10:11:17.847Z,99.90
2023-03-02T10:13:52.379Z,99.90
2023-03-02T10:16:32.187Z,99.90
2023-03-02T10:19:09.567Z,99.90
2023-03-02T10:21:40.852Z,99.90
2023-03-02T10:24:25.007Z,99.90
2023-03-02T10:26:55.989Z,99.80
2023-03-02T10:29:40.783Z,99.50
2023-03-02T10:32:20.376Z,98.90
2023-03-02T10:34:50.071Z,98.90
2023-03-02T10:37:21.776Z,98.30
2023-03-02T10:39:50.384Z,98.20
2023-03-02T10:42:23.401Z,97.70
2023-03-02T10:44:56.621Z,97.40
2023-03-02T10:47:27.290Z,97.70
2023-03-02T10:49:57.494Z,97.30
2023-03-02T10:52:28.138Z,97.50
2023-03-02T10:55:10.967Z,96.80
2023-03-02T10:57:40.897Z,97.00
2023-03-02T11:00:22.913Z,96.20
2023-03-02T11:02:53.337Z,96.20
2023-03-02T11:05:33.720Z,96.00
2023-03-02T11:08:04.178Z,95.70
2023-03-02T11:10:35.649Z,95.90
2023-03-02T11:13:18.517Z,95.50
2023-03-02T11:15:50.542Z,95.20
2023-03-02T11:18:26.872Z,94.70
2023-03-02T11:20:58.488Z,94.90
2023-03-02T11:23:40.431Z,94.40
2023-03-02T11:26:16.408Z,94.70
2023-03-02T11:28:50.297Z,94.40
2023-03-02T11:31:29.027Z,94.50
2023-03-02T11:34:24.662Z,94.30
2023-03-02T11:37:05.898Z,93.50
2023-03-02T11:39:55.033Z,93.70
2023-03-02T11:42:28.055Z,94.00
2023-03-02T11:44:56.636Z,93.50
2023-03-02T11:47:26.456Z,93.10
2023-03-02T11:49:58.335Z,93.50
2023-03-02T11:52:31.304Z,94.00
2023-03-02T11:55:04.494Z,93.70
2023-03-02T11:57:38.523Z,93.00
2023-03-02T12:00:16.533Z,93.30
2023-03-02T12:02:46.330Z,93.10
2023-03-02T12:05:26.424Z,92.90
2023-03-02T12:08:02.034Z,93.50
2023-03-02T12:10:36.151Z,92.80
2023-03-02T12:13:19.364Z,93.00
2023-03-02T12:15:50.681Z,92.90
2023-03-02T12:18:44.288Z,92.80
2023-03-02T12:21:16.400Z,92.80
2023-03-02T12:24:00.970Z,92.80
2023-03-02T12:26:34.062Z,92.10
2023-03-02T12:29:06.566Z,91.70
2023-03-02T12:31:46.117Z,92.60
2023-03-02T12:34:34.170Z,92.20
2023-03-02T12:37:07.533Z,92.60
2023-03-02T12:40:06.082Z,91.50
2023-03-02T12:42:51.490Z,91.80
2023-03-02T12:45:38.700Z,92.10
2023-03-02T12:48:23.554Z,91.80
2023-03-02T12:50:56.415Z,91.50
2023-03-02T12:53:24.728Z,92.10
2023-03-02T12:55:53.121Z,91.50
2023-03-02T12:58:24.725Z,91.90
2023-03-02T13:00:54.455Z,91.90
2023-03-02T13:03:23.145Z,92.00
2023-03-02T13:05:52.934Z,91.50
2023-03-02T13:08:25.457Z,91.50
2023-03-02T13:10:55.529Z,92.00
2023-03-02T13:13:26.768Z,91.60
2023-03-02T13:15:58.471Z,91.40
2023-03-02T13:18:31.991Z,91.80
2023-03-02T13:21:03.481Z,91.30
2023-03-02T13:23:33.613Z,90.60
2023-03-02T13:26:03.714Z,91.10
2023-03-02T13:28:37.407Z,90.90
2023-03-02T13:31:08.869Z,90.70
2023-03-02T13:33:45.570Z,90.40
2023-03-02T13:36:21.310Z,91.00
2023-03-02T13:38:51.650Z,91.10
2023-03-02T13:41:24.141Z,91.50
2023-03-02T13:43:52.577Z,91.30
2023-03-02T13:46:29.957Z,90.80
2023-03-02T13:49:09.639Z,91.00
2023-03-02T13:51:43.069Z,90.50
2023-03-02T13:54:22.016Z,91.20
2023-03-02T13:56:52.270Z,90.70
2023-03-02T13:59:22.841Z,90.60
2023-03-02T14:01:51.244Z,91.20
2023-03-02T14:04:23.370Z,91.10
2023-03-02T14:06:54.803Z,91.30
2023-03-02T14:09:23.510Z,90.80
2023-03-02T14:11:54.621Z,90.50
2023-03-02T14:14:25.862Z,90.90
2023-03-02T14:16:54.239Z,90.20
2023-03-02T14:19:22.518Z,90.30
2023-03-02T14:21:52.301Z,90.20
2023-03-02T14:24:20.965Z,90.60
2023-03-02T14:26:51.333Z,90.70
2023-03-02T14:29:26.109Z,90.10
2023-03-02T14:31:54.891Z,90.20
2023-03-02T14:34:23.483Z,90.10
2023-03-02T14:36:55.646Z,90.60
2023-03-02T14:39:28.336Z,90.20
2023-03-02T14:41:57.177Z,90.10
2023-03-02T14:44:25.578Z,90.30
2023-03-02T14:46:54.166Z,90.50
2023-03-02T14:49:22.482Z,90.30
2023-03-02T14:52:00.665Z,90.70
2023-03-02T14:54:35.774Z,90.50
2023-03-02T14:57:06.243Z,90.90
2023-03-02T14:59:34.650Z,90.70
2023-03-02T15:02:12.936Z,90.70
2023-03-02T15:04:56.039Z,91.10
2023-03-02T15:07:27.613Z,90.50
2023-03-02T15:09:56.863Z,90.90
2023-03-02T15:12:25.398Z,90.80
2023-03-02T15:14:53.732Z,91.00
2023-03-02T15:17:21.987Z,90.70
2023-03-02T15:19:50.350Z,90.70
2023-03-02T15:22:18.684Z,90.80
2023-03-02T15:24:48.448Z,90.50
2023-03-02T15:27:16.782Z,90.80
2023-03-02T15:29:46.048Z,90.90
2023-03-02T15:32:14.988Z,90.90
2023-03-02T15:34:43.810Z,91.10
2023-03-02T15:37:12.803Z,91.40
2023-03-02T15:39:41.350Z,90.90
2023-03-02T15:42:12.769Z,91.20
2023-03-02T15:44:42.269Z,90.80
2023-03-02T15:47:12.398Z,90.90
2023-03-02T15:49:40.937Z,91.00
2023-03-02T15:52:09.311Z,91.30
2023-03-02T15:54:37.677Z,91.00
2023-03-02T15:57:06.315Z,91.10
2023-03-02T15:59:36.451Z,91.60
2023-03-02T16:02:05.248Z,91.30
2023-03-02T16:04:35.096Z,91.60
2023-03-02T16:07:04.178Z,91.20
2023-03-02T16:09:32.675Z,91.40
2023-03-02T16:12:01.585Z,91.50
2023-03-02T16:14:29.902Z,91.60
2023-03-02T16:16:59.659Z,91.60
2023-03-02T16:19:28.030Z,91.80
2023-03-02T16:21:56.317Z,91.70
2023-03-02T16:24:24.775Z,92.00
2023-03-02T16:26:54.374Z,92.10
2023-03-02T16:29:24.149Z,92.10
2023-03-02T16:31:52.644Z,92.30
2023-03-02T16:34:22.818Z,92.30
2023-03-02T16:36:51.188Z,92.50
2023-03-02T16:39:19.483Z,92.60
2023-03-02T16:41:47.792Z,92.90
2023-03-02T16:44:16.235Z,92.70
2023-03-02T16:46:44.596Z,93.00
2023-03-02T16:49:14.351Z,93.20
2023-03-02T16:51:44.494Z,93.50
2023-03-02T16:54:17.464Z,93.80
2023-03-02T16:56:47.402Z,93.90
2023-03-02T16:59:16.059Z,94.10
2023-03-02T17:01:44.722Z,94.20
2023-03-02T17:04:13.219Z,94.20
2023-03-02T17:06:59.752Z,94.30
2023-03-02T17:09:29.176Z,94.50
2023-03-02T17:11:57.472Z,94.50
2023-03-02T17:14:25.774Z,94.60
2023-03-02T17:16:54.069Z,94.70
2023-03-02T17:19:22.388Z,95.00
2023-03-02T17:21:52.039Z,95.00
2023-03-02T17:24:20.462Z,95.20
2023-03-02T17:26:48.773Z,95.30
2023-03-02T17:29:17.120Z,95.50
2023-03-02T17:31:45.513Z,95.50
2023-03-02T17:34:14.303Z,95.70
2023-03-02T17:36:42.845Z,95.80
2023-03-02T17:39:12.923Z,95.80
2023-03-02T17:41:41.266Z,95.80
2023-03-02T17:44:09.557Z,95.90
2023-03-02T17:46:38.007Z,96.00
2023-03-02T17:49:06.327Z,96.00
2023-03-02T17:51:34.763Z,96.20
2023-03-02T17:54:03.068Z,96.60
2023-03-02T17:56:32.807Z,96.70
2023-03-02T17:59:03.869Z,96.90
2023-03-02T18:01:33.172Z,96.90
2023-03-02T18:04:01.596Z,96.80
2023-03-02T18:06:30.303Z,96.70
2023-03-02T18:08:58.650Z,96.80
2023-03-02T18:11:27.664Z,96.90
2023-03-02T18:13:58.015Z,96.90
2023-03-02T18:16:29.179Z,97.10
2023-03-02T18:18:57.819Z,96.80
2023-03-02T18:21:26.100Z,96.80
2023-03-02T18:23:54.609Z,96.90
2023-03-02T18:26:23.166Z,96.90
2023-03-02T18:28:51.499Z,97.00
2023-03-02T18:31:21.674Z,97.10
2023-03-02T18:33:50.287Z,97.20
2023-03-02T18:36:19.029Z,97.30
2023-03-02T18:38:47.441Z,97.30
2023-03-02T18:41:15.976Z,97.40
2023-03-02T18:43:44.324Z,97.40
2023-03-02T18:46:22.767Z,97.50
2023-03-02T18:48:52.270Z,97.50
2023-03-02T18:51:21.948Z,97.60
2023-03-02T18:53:51.069Z,97.70
2023-03-02T18:56:19.974Z,97.90
2023-03-02T18:58:48.608Z,98.00
2023-03-02T19:01:17.089Z,98.10
2023-03-02T19:03:46.997Z,98.20
2023-03-02T19:06:16.518Z,98.10
2023-03-02T19:08:44.894Z,98.20
2023-03-02T19:11:13.897Z,98.20
2023-03-02T19:13:42.282Z,98.10
2023-03-02T19:16:10.630Z,98.00
2023-03-02T19:18:39.412Z,98.10
2023-03-02T19:21:09.114Z,98.10
2023-03-02T19:23:38.372Z,98.20
2023-03-02T19:26:06.807Z,98.30
2023-03-02T19:28:36.214Z,98.50
2023-03-02T19:31:06.589Z,98.80
2023-03-02T19:33:35.582Z,99.10
2023-03-02T19:36:03.978Z,99.20
2023-03-02T19:38:36.142Z,99.40
2023-03-02T19:41:04.716Z,99.50
2023-03-02T19:43:33.140Z,99.80
2023-03-02T19:46:01.533Z,99.90
2023-03-02T19:48:30.361Z,99.90
2023-03-02T19:50:58.881Z,99.90
2023-03-02T19:53:27.154Z,99.90
2023-03-02T19:56:01.381Z,99.90
2023-03-02T19:58:32.091Z,99.90
2023-03-02T20:01:00.467Z,99.90
2023-03-02T20:03:29.069Z,99.90
2023-03-02T20:05:58.939Z,99.90
2023-03-02T20:08:27.385Z,99.90
2023-03-02T20:10:57.096Z,99.90
2023-03-02T20:13:27.144Z,99.90
2023-03-02T20:15:55.643Z,99.90
2023-03-02T20:18:23.939Z,99.90
2023-03-02T20:20:52.282Z,99.90
2023-03-02T20:23:20.628Z,99.90
2023-03-02T20:25:49.061Z,99.90
2023-03-02T20:28:22.545Z,99.90
2023-03-02T20:30:53.747Z,99.90
2023-03-02T20:33:23.984Z,99.90
2023-03-02T20:35:53.255Z,99.90
2023-03-02T20:38:29.055Z,99.90
2023-03-02T20:40:57.733Z,99.90
2023-03-02T20:43:28.075Z,99.90
2023-03-02T20:45:57.110Z,99.90
2023-03-02T20:48:26.294Z,99.90
2023-03-02T20:50:55.183Z,99.90
2023-03-02T20:53:23.775Z,99.90
2023-03-02T20:55:52.186Z,99.90
2023-03-02T20:58:20.720Z,99.90
2023-03-02T21:00:50.381Z,99.90
2023-03-02T21:03:18.668Z,99.90
2023-03-02T21:05:47.349Z,99.90
2023-03-02T21:08:15.775Z,99.90
2023-03-02T21:10:45.787Z,99.90
2023-03-02T21:13:14.552Z,99.90
2023-03-02T21:15:43.041Z,99.90
2023-03-02T21:18:13.317Z,99.90
2023-03-02T21:20:42.275Z,99.90
2023-03-02T21:23:11.113Z,99.90
2023-03-02T21:25:41.899Z,99.90
2023-03-02T21:28:10.770Z,99.90
2023-03-02T21:30:39.060Z,99.90
2023-03-02T21:33:07.459Z,99.90
2023-03-02T21:35:37.296Z,99.90
2023-03-02T21:38:06.132Z,99.90
2023-03-02T21:40:37.659Z,99.90
2023-03-02T21:43:06.831Z,99.90
2023-03-02T21:45:35.848Z,99.90
2023-03-02T21:48:05.129Z,99.90
2023-03-02T21:50:38.742Z,99.90
2023-03-02T21:53:07.355Z,99.90
2023-03-02T21:55:36.275Z,99.90
2023-03-02T21:58:04.876Z,99.90
2023-03-02T22:00:35.714Z,99.90
2023-03-02T22:03:05.003Z,99.90
2023-03-02T22:05:33.960Z,99.90
2023-03-02T22:08:03.644Z,99.90
2023-03-02T22:10:33.829Z,99.90
2023-03-02T22:13:18.499Z,99.90
2023-03-02T22:15:47.388Z,99.90
2023-03-02T22:18:17.537Z,99.90
2023-03-02T22:20:47.893Z,99.90
2023-03-02T22:23:20.938Z,99.90
2023-03-02T22:25:52.000Z,99.90
2023-03-02T22:28:22.960Z,99.90
2023-03-02T22:30:52.413Z,99.90
2023-03-02T22:33:22.563Z,99.90
2023-03-02T22:35:52.888Z,99.90
2023-03-02T22:38:25.719Z,99.90
2023-03-02T22:40:55.223Z,99.90
2023-03-02T22:43:29.205Z,99.90
2023-03-02T22:46:03.888Z,99.90
2023-03-02T22:48:35.450Z,99.90
2023-03-02T22:51:14.375Z,99.90
2023-03-02T22:53:49.192Z,99.90
2023-03-02T22:56:31.538Z,99.90
2023-03-02T22:59:03.910Z,99.90
2023-03-02T23:01:40.770Z,99.90
2023-03-02T23:04:20.117Z,99.90
2023-03-02T23:06:50.380Z,99.90
2023-03-02T23:09:22.992Z,99.90
2023-03-02T23:11:52.092Z,99.90
2023-03-02T23:14:26.870Z,99.90
2023-03-02T23:17:00.747Z,99.90
2023-03-02T23:19:31.452Z,99.90
2023-03-02T23:21:59.929Z,99.90
2023-03-02T23:24:29.568Z,99.90
2023-03-02T23:26:57.870Z,99.90
2023-03-02T23:29:26.133Z,99.90
2023-03-02T23:31:54.733Z,99.90
2023-03-02T23:34:23.537Z,99.90
2023-03-02T23:36:51.877Z,99.90
2023-03-02T23:39:20.167Z,99.90
2023-03-02T23:41:49.908Z,99.90
2023-03-02T23:44:19.272Z,99.90
2023-03-02T23:46:48.130Z,99.90
2023-03-02T23:49:16.860Z,99.90
2023-03-02T23:51:45.318Z,99.90
2023-03-02T23:54:14.161Z,99.90
2023-03-02T23:56:42.423Z,99.90
2023-03-02T23:59:12.037Z,99.90
